Hlavní strana
METAR-TAF:

METAR-TAF

Letiště :

Torsby, Švédsko

zeměpisná šířka: 60-09-17N, zeměpisná délka: 12-59-40E, výška: 120 m

Aktuální stav počasí

Zpráva byla vytvořena před 36 minutami, v 07:50 UTC
Severovýchodní vítr 7 kt, proměnlivý mezi severním a východním
Teplota 13°C
Vlhkost vzduchu 62%
Tlak 1017 hPa
Viditelnost 10 km a více
Žádná oblačnost pod 1500 m, nevyskytují se cumulonimby.

METAR: ESST 260750Z 05007KT 010V090 CAVOK 13/06 Q1017

Čas: 10:26 (08:26 UTC)


TAF: chybějící

Stav a předpovědi počasí z více než 4 000 letišť (zprávy METAR a TAF).

Červené a žluté tečky na mapě představují dostupné meteorologické stanice.

Když kurzor umístíte na tečku, zobrazí se název stanice.

Pak kliknutím zobrazíte stav a předpověď počasí.

Chcete-li změnit mapu, kliknutím na zelené tlačítko se znaménkem +mapu přiblížíte, kliknutím na zelené tlačítko se znaménkem – mapu oddálíte a kliknutím na zelené šipky přejdete na sousední mapy.


METAR-TAF: